Time;durP1;ratioP1;P1;durP2;ratioP2;P2;SDS_P1;SDS_P2;PMS_P1;PMS_P2;Temp;Humidity;BMP_temperature;BMP_pressure;BME280_temperature;BME280_humidity;BME280_pressure;Samples;Min_cycle;Max_cycle;Signal;HPM_P1;HPM_P2
2023/01/20 00:01:25;;;;;;;;;;;;;;;;;;5008568;28;1221;-64
2023/01/20 00:03:51;;;;;;;;;;;;;;;;;;5006648;28;5142;-64
2023/01/20 00:06:16;;;;;;;;;;;;;;;;;;5000941;28;5063;-65
2023/01/20 00:08:42;;;;;;;;;;;;;;;;;;5008581;28;5062;-64
2023/01/20 00:11:08;;;;;;;;;;;;;;;;;;5007934;28;5030;-65
2023/01/20 00:13:36;;;;;;;;;;;;;;;;;;5010755;28;5224;-65
2023/01/20 00:16:02;;;;;;;;;;;;;;;;;;5009202;28;1111;-63
2023/01/20 00:18:27;;;;;;;;;;;;;;;;;;5007924;28;5068;-64
2023/01/20 00:20:53;;;;;;;;;;;;;;;;;;5010017;28;5339;-65
2023/01/20 00:23:18;;;;;;;;;;;;;;;;;;5008730;28;5163;-66
2023/01/20 00:25:43;;;;;;;;;;;;;;;;;;5008972;28;4682;-65
2023/01/20 00:28:08;;;;;;;;;;;;;;;;;;5001526;28;1095;-65
2023/01/20 00:30:34;;;;;;;;;;;;;;;;;;5004743;28;5030;-65
2023/01/20 00:32:59;;;;;;;;;;;;;;;;;;5007368;28;5051;-64
2023/01/20 00:35:24;;;;;;;;;;;;;;;;;;5005719;28;5167;-60
2023/01/20 00:37:50;;;;;;;;;;;;;;;;;;5008868;28;5019;-65
2023/01/20 00:40:15;;;;;;;;;;;;;;;;;;5009820;28;1973;-64
2023/01/20 00:42:40;;;;;;;;;;;;;;;;;;5009236;28;4458;-65
2023/01/20 00:45:06;;;;;;;;;;;;;;;;;;5009389;28;5166;-65
2023/01/20 00:47:31;;;;;;;;;;;;;;;;;;5007700;28;5229;-61
2023/01/20 00:49:56;;;;;;;;;;;;;;;;;;5007539;28;5120;-65
2023/01/20 00:52:22;;;;;;;;;;;;;;;;;;5006156;28;3321;-65
2023/01/20 00:54:47;;;;;;;;;;;;;;;;;;5007672;28;5034;-65
2023/01/20 00:57:12;;;;;;;;;;;;;;;;;;5008912;28;4588;-65
2023/01/20 00:59:37;;;;;;;;;;;;;;;;;;5004198;28;4538;-65
2023/01/20 01:02:03;;;;;;;;;;;;;;;;;;5008303;28;4489;-64
2023/01/20 01:04:28;;;;;;;;;;;;;;;;;;5007155;28;3478;-63
2023/01/20 01:06:53;;;;;;;;;;;;;;;;;;5001000;28;5201;-64
2023/01/20 01:09:20;;;;;;;;;;;;;;;;;;5001356;28;5058;-63
2023/01/20 01:11:45;;;;;;;;;;;;;;;;;;5008281;28;5073;-63
2023/01/20 01:14:11;;;;;;;;;;;;;;;;;;5007696;28;5078;-64
2023/01/20 01:16:36;;;;;;;;;;;;;;;;;;5009034;28;5451;-64
2023/01/20 01:19:01;;;;;;;;;;;;;;;;;;5008612;28;1927;-66
2023/01/20 01:21:26;;;;;;;;;;;;;;;;;;5006643;28;5022;-65
2023/01/20 01:23:52;;;;;;;;;;;;;;;;;;5003541;28;4987;-66
2023/01/20 01:26:17;;;;;;;;;;;;;;;;;;5003306;28;5340;-66
2023/01/20 01:28:42;;;;;;;;;;;;;;;;;;5004321;28;5053;-65
2023/01/20 01:31:08;;;;;;;;;;;;;;;;;;5001673;28;4535;-65
2023/01/20 01:33:33;;;;;;;;;;;;;;;;;;5004451;28;5217;-65
2023/01/20 01:35:59;;;;;;;;;;;;;;;;;;5005843;28;5122;-65
2023/01/20 01:38:24;;;;;;;;;;;;;;;;;;4460201;28;15167882;-66
2023/01/20 01:40:50;;;;;;;;;;;;;;;;;;5001792;28;5085;-66
2023/01/20 01:43:19;;;;;;;;;;;;;;;;;;5001309;28;1215;-65
2023/01/20 01:45:44;;;;;;;;;;;;;;;;;;5008589;28;4433;-65
2023/01/20 01:48:10;;;;;;;;;;;;;;;;;;4999507;28;4972;-67
2023/01/20 01:50:35;;;;;;;;;;;;;;;;;;5003052;28;4549;-67
2023/01/20 01:53:00;;;;;;;;;;;;;;;;;;5005572;28;4473;-67
2023/01/20 01:55:28;;;;;;;;;;;;;;;;;;5009250;28;1176;-65
2023/01/20 01:57:53;;;;;;;;;;;;;;;;;;5005088;28;4404;-66
2023/01/20 02:00:18;;;;;;;;;;;;;;;;;;5006890;28;5157;-64
2023/01/20 02:02:44;;;;;;;;;;;;;;;;;;5005441;28;5085;-64
2023/01/20 02:05:10;;;;;;;;;;;;;;;;;;4998110;28;5537;-65
2023/01/20 02:07:35;;;;;;;;;;;;;;;;;;5003825;28;4945;-65
2023/01/20 02:10:00;;;;;;;;;;;;;;;;;;5005261;28;1406;-64
2023/01/20 02:12:26;;;;;;;;;;;;;;;;;;5002380;28;4867;-67
2023/01/20 02:14:51;;;;;;;;;;;;;;;;;;5001587;28;5155;-64
2023/01/20 02:17:20;;;;;;;;;;;;;;;;;;5003096;28;5028;-64
2023/01/20 02:20:03;;;;;;;;;;;;;;;;;;5005188;28;5184;-65
2023/01/20 02:22:50;;;;;;;;;;;;;;;;;;5008671;28;1813;-62
2023/01/20 02:25:18;;;;;;;;;;;;;;;;;;5005521;28;5077;-67
2023/01/20 02:27:53;;;;;;;;;;;;;;;;;;5002807;28;4448;-64
2023/01/20 02:30:21;;;;;;;;;;;;;;;;;;4990204;28;5099;-64
2023/01/20 02:32:49;;;;;;;;;;;;;;;;;;5008046;28;4982;-65
2023/01/20 02:35:23;;;;;;;;;;;;;;;;;;5000233;28;5034;-65
2023/01/20 02:37:48;;;;;;;;;;;;;;;;;;5007629;28;5101;-65
2023/01/20 02:40:17;;;;;;;;;;;;;;;;;;5003964;28;3349;-64
2023/01/20 02:42:44;;;;;;;;;;;;;;;;;;5007013;28;4930;-66
2023/01/20 02:45:28;;;;;;;;;;;;;;;;;;5006658;28;5348;-66
2023/01/20 02:47:57;;;;;;;;;;;;;;;;;;5007231;28;5026;-64
2023/01/20 02:50:24;;;;;;;;;;;;;;;;;;5004859;28;5030;-65
2023/01/20 02:52:50;;;;;;;;;;;;;;;;;;5004830;28;5082;-63
2023/01/20 02:55:18;;;;;;;;;;;;;;;;;;5005633;28;3548;-64
2023/01/20 02:57:45;;;;;;;;;;;;;;;;;;5006412;28;4490;-66
2023/01/20 03:00:16;;;;;;;;;;;;;;;;;;5002752;28;5187;-66
2023/01/20 03:02:41;;;;;;;;;;;;;;;;;;4985662;28;5138;-66
2023/01/20 03:05:07;;;;;;;;;;;;;;;;;;4987540;28;5088;-65
2023/01/20 03:07:33;;;;;;;;;;;;;;;;;;5001713;28;4907;-65
2023/01/20 03:09:59;;;;;;;;;;;;;;;;;;4986174;28;3617;-66
2023/01/20 03:12:48;;;;;;;;;;;;;;;;;;5001790;28;4518;-65
2023/01/20 03:15:13;;;;;;;;;;;;;;;;;;4987930;28;4988;-66
2023/01/20 03:17:38;;;;;;;;;;;;;;;;;;4981879;28;5304;-66
2023/01/20 03:20:04;;;;;;;;;;;;;;;;;;4987088;28;5486;-67
2023/01/20 03:22:29;;;;;;;;;;;;;;;;;;4988212;28;1376;-65
2023/01/20 03:24:54;;;;;;;;;;;;;;;;;;4982374;28;5019;-68
2023/01/20 03:27:19;;;;;;;;;;;;;;;;;;4990681;28;5113;-66
2023/01/20 03:29:45;;;;;;;;;;;;;;;;;;4987656;28;5368;-69
2023/01/20 03:32:10;;;;;;;;;;;;;;;;;;4981810;28;4966;-67
2023/01/20 03:34:35;;;;;;;;;;;;;;;;;;4981637;28;4827;-70
2023/01/20 03:37:01;;;;;;;;;;;;;;;;;;4987336;28;4024;-69
2023/01/20 03:39:26;;;;;;;;;;;;;;;;;;5001667;28;5225;-71
2023/01/20 03:41:51;;;;;;;;;;;;;;;;;;5006283;28;4951;-68
2023/01/20 03:44:17;;;;;;;;;;;;;;;;;;5004148;28;4485;-65
2023/01/20 03:46:42;;;;;;;;;;;;;;;;;;5004069;28;5108;-66
2023/01/20 03:49:16;;;;;;;;;;;;;;;;;;4987566;28;3337;-66
2023/01/20 03:52:01;;;;;;;;;;;;;;;;;;4984172;28;5080;-67
2023/01/20 03:54:27;;;;;;;;;;;;;;;;;;4984524;28;5081;-66
2023/01/20 03:56:57;;;;;;;;;;;;;;;;;;4988987;28;5263;-68
2023/01/20 03:59:22;;;;;;;;;;;;;;;;;;5003740;28;5176;-68
2023/01/20 04:01:47;;;;;;;;;;;;;;;;;;5005847;28;5187;-68
2023/01/20 04:04:14;;;;;;;;;;;;;;;;;;5007003;28;3488;-67
2023/01/20 04:06:40;;;;;;;;;;;;;;;;;;4979311;28;5061;-68
2023/01/20 04:09:10;;;;;;;;;;;;;;;;;;4983719;28;5184;-68
2023/01/20 04:11:35;;;;;;;;;;;;;;;;;;4985016;28;5147;-68
2023/01/20 04:14:01;;;;;;;;;;;;;;;;;;4983622;28;5276;-63
2023/01/20 04:16:26;;;;;;;;;;;;;;;;;;4983194;28;3899;-66
2023/01/20 04:18:52;;;;;;;;;;;;;;;;;;4985051;28;4975;-67
2023/01/20 04:21:20;;;;;;;;;;;;;;;;;;4988336;28;5155;-67
2023/01/20 04:23:47;;;;;;;;;;;;;;;;;;4984965;28;4496;-68
2023/01/20 04:26:13;;;;;;;;;;;;;;;;;;4982906;28;5053;-68
2023/01/20 04:28:38;;;;;;;;;;;;;;;;;;4989235;28;5194;-68
2023/01/20 04:31:03;;;;;;;;;;;;;;;;;;5010185;28;4557;-66
2023/01/20 04:33:28;;;;;;;;;;;;;;;;;;5008724;28;4725;-66
2023/01/20 04:35:54;;;;;;;;;;;;;;;;;;5005728;28;5211;-68
2023/01/20 04:38:19;;;;;;;;;;;;;;;;;;5009052;28;5127;-70
2023/01/20 04:40:44;;;;;;;;;;;;;;;;;;5005733;28;5147;-66
2023/01/20 04:43:10;;;;;;;;;;;;;;;;;;5005580;28;3518;-70
2023/01/20 04:45:36;;;;;;;;;;;;;;;;;;5007479;28;5053;-69
2023/01/20 04:48:04;;;;;;;;;;;;;;;;;;5003396;28;5755;-70
2023/01/20 04:50:29;;;;;;;;;;;;;;;;;;5009292;28;4527;-70
2023/01/20 04:52:55;;;;;;;;;;;;;;;;;;5003706;28;5180;-72
2023/01/20 04:55:20;;;;;;;;;;;;;;;;;;5010492;28;1090;-70
2023/01/20 04:57:46;;;;;;;;;;;;;;;;;;5007570;28;4929;-70
2023/01/20 05:00:17;;;;;;;;;;;;;;;;;;5009874;28;5081;-67
2023/01/20 05:02:42;;;;;;;;;;;;;;;;;;5014731;28;5068;-66
2023/01/20 05:05:07;;;;;;;;;;;;;;;;;;5009186;28;4493;-67
2023/01/20 05:07:33;;;;;;;;;;;;;;;;;;5008447;28;5192;-68
2023/01/20 05:09:58;;;;;;;;;;;;;;;;;;5003039;28;1047;-63
2023/01/20 05:12:23;;;;;;;;;;;;;;;;;;5009249;28;5011;-68
2023/01/20 05:14:48;;;;;;;;;;;;;;;;;;5008154;28;5010;-68
2023/01/20 05:17:14;;;;;;;;;;;;;;;;;;5009019;28;5028;-68
2023/01/20 05:19:39;;;;;;;;;;;;;;;;;;5007516;28;5038;-68
2023/01/20 05:22:04;;;;;;;;;;;;;;;;;;5008428;28;3303;-67
2023/01/20 05:24:30;;;;;;;;;;;;;;;;;;5004782;28;5013;-64
2023/01/20 05:26:57;;;;;;;;;;;;;;;;;;5003009;28;4505;-67
2023/01/20 05:29:22;;;;;;;;;;;;;;;;;;5007236;28;5315;-67
2023/01/20 05:31:48;;;;;;;;;;;;;;;;;;5001576;28;4927;-66
2023/01/20 05:34:14;;;;;;;;;;;;;;;;;;5001533;28;1023;-65
2023/01/20 05:36:40;;;;;;;;;;;;;;;;;;5002361;28;4980;-67
2023/01/20 05:39:05;;;;;;;;;;;;;;;;;;5008115;28;4742;-67
2023/01/20 05:41:30;;;;;;;;;;;;;;;;;;5008537;28;5080;-65
2023/01/20 05:43:55;;;;;;;;;;;;;;;;;;5008298;28;5091;-68
2023/01/20 05:46:21;;;;;;;;;;;;;;;;;;5008820;28;1944;-68
2023/01/20 05:48:46;;;;;;;;;;;;;;;;;;5007337;28;5081;-70
2023/01/20 05:51:11;;;;;;;;;;;;;;;;;;5003545;28;5464;-68
2023/01/20 05:53:36;;;;;;;;;;;;;;;;;;5001939;28;4500;-71
2023/01/20 05:56:02;;;;;;;;;;;;;;;;;;5008238;28;5878;-70
2023/01/20 05:58:28;;;;;;;;;;;;;;;;;;5007583;28;1338;-71
2023/01/20 06:00:53;;;;;;;;;;;;;;;;;;5007628;28;4716;-70
2023/01/20 06:03:18;;;;;;;;;;;;;;;;;;5007115;28;5512;-65
2023/01/20 06:05:43;;;;;;;;;;;;;;;;;;5007049;28;5099;-66
2023/01/20 06:08:09;;;;;;;;;;;;;;;;;;5008255;28;5031;-63
2023/01/20 06:10:34;;;;;;;;;;;;;;;;;;5007925;28;4544;-65
2023/01/20 06:12:59;;;;;;;;;;;;;;;;;;5002979;28;1137;-66
2023/01/20 06:15:24;;;;;;;;;;;;;;;;;;5007327;28;4442;-67
2023/01/20 06:17:50;;;;;;;;;;;;;;;;;;4998985;28;5151;-67
2023/01/20 06:20:15;;;;;;;;;;;;;;;;;;5006620;28;5196;-67
2023/01/20 06:22:40;;;;;;;;;;;;;;;;;;5007669;28;4692;-69
2023/01/20 06:25:06;;;;;;;;;;;;;;;;;;5002171;28;1383;-67
2023/01/20 06:27:31;;;;;;;;;;;;;;;;;;5008014;28;4600;-66
2023/01/20 06:29:56;;;;;;;;;;;;;;;;;;5006497;28;5026;-67
2023/01/20 06:32:22;;;;;;;;;;;;;;;;;;5007435;28;4624;-68
2023/01/20 06:34:47;;;;;;;;;;;;;;;;;;5004615;28;5149;-69
2023/01/20 06:37:12;;;;;;;;;;;;;;;;;;5006819;28;1352;-68
2023/01/20 06:39:39;;;;;;;;;;;;;;;;;;5003865;28;5509;-69
2023/01/20 06:42:04;;;;;;;;;;;;;;;;;;5003691;28;5018;-66
2023/01/20 06:44:32;;;;;;;;;;;;;;;;;;5007064;28;5747;-67
2023/01/20 06:46:58;;;;;;;;;;;;;;;;;;4995172;28;5171;-69
2023/01/20 06:49:23;;;;;;;;;;;;;;;;;;5002061;28;3329;-65
2023/01/20 06:51:48;;;;;;;;;;;;;;;;;;4998653;28;5086;-68
2023/01/20 06:54:14;;;;;;;;;;;;;;;;;;5000482;28;5122;-67
2023/01/20 06:56:39;;;;;;;;;;;;;;;;;;4997931;28;4515;-67
2023/01/20 06:59:04;;;;;;;;;;;;;;;;;;4995440;28;5708;-65
2023/01/20 07:01:29;;;;;;;;;;;;;;;;;;5000941;28;3628;-65
2023/01/20 07:03:55;;;;;;;;;;;;;;;;;;5000383;28;4912;-67
2023/01/20 07:06:23;;;;;;;;;;;;;;;;;;4997881;28;5150;-66
2023/01/20 07:08:49;;;;;;;;;;;;;;;;;;5003480;28;5134;-66
2023/01/20 07:11:14;;;;;;;;;;;;;;;;;;4997101;28;5103;-69
2023/01/20 07:13:39;;;;;;;;;;;;;;;;;;5000574;28;4508;-72
2023/01/20 07:16:04;;;;;;;;;;;;;;;;;;4999215;28;3454;-73
2023/01/20 07:18:30;;;;;;;;;;;;;;;;;;5003854;28;4978;-69
2023/01/20 07:20:55;;;;;;;;;;;;;;;;;;5004940;28;5085;-65
2023/01/20 07:23:21;;;;;;;;;;;;;;;;;;5001324;28;5197;-64
2023/01/20 07:25:46;;;;;;;;;;;;;;;;;;5001438;28;5119;-65
2023/01/20 07:28:11;;;;;;;;;;;;;;;;;;5003844;28;3308;-66
2023/01/20 07:30:36;;;;;;;;;;;;;;;;;;5007098;28;4534;-62
2023/01/20 07:33:04;;;;;;;;;;;;;;;;;;5005880;28;5061;-63
2023/01/20 07:35:29;;;;;;;;;;;;;;;;;;5007381;28;4908;-61
2023/01/20 07:37:54;;;;;;;;;;;;;;;;;;5009075;28;4520;-64
2023/01/20 07:40:20;;;;;;;;;;;;;;;;;;5006519;28;3643;-65
2023/01/20 07:42:45;;;;;;;;;;;;;;;;;;5005435;28;4884;-64
2023/01/20 07:45:10;;;;;;;;;;;;;;;;;;5005249;28;5069;-64
2023/01/20 07:47:36;;;;;;;;;;;;;;;;;;5001989;28;5653;-64
2023/01/20 07:50:01;;;;;;;;;;;;;;;;;;5006684;28;4706;-65
2023/01/20 07:52:26;;;;;;;;;;;;;;;;;;5010580;28;1465;-61
2023/01/20 07:54:51;;;;;;;;;;;;;;;;;;5006292;28;5039;-64
2023/01/20 07:57:17;;;;;;;;;;;;;;;;;;5005840;28;5044;-65
2023/01/20 07:59:42;;;;;;;;;;;;;;;;;;5004043;28;5066;-64
2023/01/20 08:02:10;;;;;;;;;;;;;;;;;;5014069;28;4671;-64
2023/01/20 08:04:35;;;;;;;;;;;;;;;;;;5011592;28;4985;-65
2023/01/20 08:07:01;;;;;;;;;;;;;;;;;;5010386;28;1261;-63
2023/01/20 08:09:26;;;;;;;;;;;;;;;;;;5006861;28;4671;-64
2023/01/20 08:11:51;;;;;;;;;;;;;;;;;;5008163;28;4520;-65
2023/01/20 08:14:17;;;;;;;;;;;;;;;;;;5009973;28;5052;-63
2023/01/20 08:16:42;;;;;;;;;;;;;;;;;;5011162;28;4639;-63
2023/01/20 08:19:07;;;;;;;;;;;;;;;;;;5008637;28;3325;-64
2023/01/20 08:21:32;;;;;;;;;;;;;;;;;;5009343;28;5642;-64
2023/01/20 08:23:58;;;;;;;;;;;;;;;;;;5007636;28;5198;-64
2023/01/20 08:26:24;;;;;;;;;;;;;;;;;;5008972;28;5143;-65
2023/01/20 08:28:49;;;;;;;;;;;;;;;;;;5002030;28;4625;-61
2023/01/20 08:31:15;;;;;;;;;;;;;;;;;;5005762;28;4281;-64
2023/01/20 08:33:43;;;;;;;;;;;;;;;;;;5009140;28;4485;-65
2023/01/20 08:36:08;;;;;;;;;;;;;;;;;;5009558;28;4784;-65
2023/01/20 08:38:34;;;;;;;;;;;;;;;;;;5009228;28;4970;-64
2023/01/20 08:40:59;;;;;;;;;;;;;;;;;;5008231;28;5188;-61
2023/01/20 08:43:24;;;;;;;;;;;;;;;;;;5011884;28;1244;-65
2023/01/20 08:46:03;;;;;;;;;;;;;;;;;;5014287;28;5160;-65
2023/01/20 08:48:28;;;;;;;;;;;;;;;;;;5006763;28;5147;-64
2023/01/20 08:50:53;;;;;;;;;;;;;;;;;;5006203;28;5153;-66
2023/01/20 08:53:18;;;;;;;;;;;;;;;;;;5007194;28;5072;-65
2023/01/20 08:55:45;;;;;;;;;;;;;;;;;;5001676;28;5039;-64
2023/01/20 08:58:11;;;;;;;;;;;;;;;;;;5013043;28;3028;-63
2023/01/20 09:00:36;;;;;;;;;;;;;;;;;;5006186;28;5235;-63
2023/01/20 09:03:01;;;;;;;;;;;;;;;;;;5013114;28;5223;-64
2023/01/20 09:05:26;;;;;;;;;;;;;;;;;;5005934;28;5474;-64
2023/01/20 09:07:51;;;;;;;;;;;;;;;;;;5007751;28;5249;-64
2023/01/20 09:10:17;;;;;;;;;;;;;;;;;;5007311;28;1664;-63
2023/01/20 09:12:43;;;;;;;;;;;;;;;;;;5013617;28;5010;-65
2023/01/20 09:15:08;;;;;;;;;;;;;;;;;;5008688;28;5062;-66
2023/01/20 09:17:34;;;;;;;;;;;;;;;;;;5006755;28;5341;-64
2023/01/20 09:19:59;;;;;;;;;;;;;;;;;;5007415;28;4972;-61
2023/01/20 09:22:24;;;;;;;;;;;;;;;;;;5002568;28;3426;-65
2023/01/20 09:24:50;;;;;;;;;;;;;;;;;;4999507;28;5140;-64
2023/01/20 09:27:15;;;;;;;;;;;;;;;;;;5008183;28;5109;-63
2023/01/20 09:29:40;;;;;;;;;;;;;;;;;;5007417;28;4522;-65
2023/01/20 09:32:06;;;;;;;;;;;;;;;;;;5007486;28;5112;-63
2023/01/20 09:34:31;;;;;;;;;;;;;;;;;;5007222;28;3328;-64
2023/01/20 09:43:52;;;;;;;;;;;;;;;;;;5004745;28;4388;-64
2023/01/20 09:45:48;;;;;;;;;;;;;;;;;;5008405;28;5178;-65
2023/01/20 09:53:54;;;;;;;;;;;;;;;;;;5001577;28;4522;-64
2023/01/20 09:56:20;;;;;;;;;;;;;;;;;;5003721;28;5062;-63
2023/01/20 09:59:00;;;;;;;;;;;;;;;;;;5006756;28;4699;-65
2023/01/20 10:01:34;;;;;;;;;;;;;;;;;;5008711;28;1099;-69
2023/01/20 10:04:03;;;;;;;;;;;;;;;;;;5006842;28;6282;-66
2023/01/20 10:06:49;;;;;;;;;;;;;;;;;;5009820;28;4900;-69
2023/01/20 10:09:23;;;;;;;;;;;;;;;;;;4974318;28;5041;-69
2023/01/20 10:11:48;;;;;;;;;;;;;;;;;;4999762;28;5000;-63
2023/01/20 10:14:31;;;;;;;;;;;;;;;;;;5002961;28;5203;-61
2023/01/20 10:16:59;;;;;;;;;;;;;;;;;;5002849;28;5232;-64
2023/01/20 10:19:36;;;;;;;;;;;;;;;;;;5004706;28;3345;-62
2023/01/20 10:22:18;;;;;;;;;;;;;;;;;;5022248;28;5046;-70
2023/01/20 10:25:13;;;;;;;;;;;;;;;;;;4999471;28;4910;-68
2023/01/20 10:27:40;;;;;;;;;;;;;;;;;;4952648;28;5153;-66
2023/01/20 10:30:08;;;;;;;;;;;;;;;;;;5002847;28;4613;-68
2023/01/20 10:32:35;;;;;;;;;;;;;;;;;;5002835;28;5058;-67
2023/01/20 10:35:14;;;;;;;;;;;;;;;;;;5000630;28;5156;-65
2023/01/20 10:37:39;;;;;;;;;;;;;;;;;;5011446;28;5150;-67
2023/01/20 10:40:07;;;;;;;;;;;;;;;;;;5005788;28;2005;-67
2023/01/20 10:42:32;;;;;;;;;;;;;;;;;;4997878;28;5082;-67
2023/01/20 10:44:57;;;;;;;;;;;;;;;;;;5000414;28;5158;-69
2023/01/20 10:47:32;;;;;;;;;;;;;;;;;;5001031;28;5139;-66
2023/01/20 10:50:09;;;;;;;;;;;;;;;;;;5000228;28;5088;-68
2023/01/20 10:52:46;;;;;;;;;;;;;;;;;;5002486;28;5107;-58
2023/01/20 10:55:30;;;;;;;;;;;;;;;;;;5004798;28;3359;-58
2023/01/20 10:57:57;;;;;;;;;;;;;;;;;;5004841;28;4936;-59
2023/01/20 11:00:24;;;;;;;;;;;;;;;;;;5006590;28;4985;-59
2023/01/20 11:02:51;;;;;;;;;;;;;;;;;;5003490;28;4509;-59
2023/01/20 11:05:17;;;;;;;;;;;;;;;;;;5005601;28;4623;-63
2023/01/20 11:07:43;;;;;;;;;;;;;;;;;;5006214;28;4592;-58
2023/01/20 11:10:14;;;;;;;;;;;;;;;;;;5010971;28;3085;-58
2023/01/20 11:12:40;;;;;;;;;;;;;;;;;;5006989;28;5039;-59
2023/01/20 11:15:10;;;;;;;;;;;;;;;;;;5001077;28;4692;-61
2023/01/20 11:17:35;;;;;;;;;;;;;;;;;;5023264;28;4941;-61
2023/01/20 11:20:04;;;;;;;;;;;;;;;;;;4988778;28;6296;-58
2023/01/20 11:22:33;;;;;;;;;;;;;;;;;;5004881;28;3272;-59
2023/01/20 11:24:59;;;;;;;;;;;;;;;;;;5005661;28;4633;-58
2023/01/20 11:27:28;;;;;;;;;;;;;;;;;;5008758;28;4480;-61
2023/01/20 11:29:58;;;;;;;;;;;;;;;;;;5001396;28;4960;-65
2023/01/20 11:32:27;;;;;;;;;;;;;;;;;;5002926;28;5119;-65
2023/01/20 11:34:52;;;;;;;;;;;;;;;;;;5003834;28;4741;-66
2023/01/20 11:37:18;;;;;;;;;;;;;;;;;;5004901;28;3405;-64
2023/01/20 11:39:50;;;;;;;;;;;;;;;;;;5002287;28;5481;-67
2023/01/20 11:42:23;;;;;;;;;;;;;;;;;;5004834;28;5075;-68
2023/01/20 11:44:49;;;;;;;;;;;;;;;;;;5005152;28;5130;-65
2023/01/20 11:47:24;;;;;;;;;;;;;;;;;;5002664;28;4976;-66
2023/01/20 11:50:08;;;;;;;;;;;;;;;;;;5001027;28;5243;-66
2023/01/20 11:52:36;;;;;;;;;;;;;;;;;;5004242;28;5048;-64
2023/01/20 11:55:07;;;;;;;;;;;;;;;;;;5001334;28;3438;-66
2023/01/20 11:57:32;;;;;;;;;;;;;;;;;;5006280;28;4555;-66
2023/01/20 11:59:58;;;;;;;;;;;;;;;;;;5004741;28;4509;-64
2023/01/20 12:02:23;;;;;;;;;;;;;;;;;;5010613;28;5069;-67
2023/01/20 12:04:51;;;;;;;;;;;;;;;;;;5004269;28;5349;-69
2023/01/20 12:07:25;;;;;;;;;;;;;;;;;;5004382;28;3325;-66
2023/01/20 12:09:52;;;;;;;;;;;;;;;;;;4999693;28;4897;-67
2023/01/20 12:12:27;;;;;;;;;;;;;;;;;;4999689;28;4497;-68
2023/01/20 12:15:09;;;;;;;;;;;;;;;;;;5000507;28;5661;-68
2023/01/20 12:17:40;;;;;;;;;;;;;;;;;;4999582;28;4517;-69
2023/01/20 12:20:08;;;;;;;;;;;;;;;;;;5002135;28;5264;-66
2023/01/20 12:22:36;;;;;;;;;;;;;;;;;;5001105;28;5375;-66
2023/01/20 12:25:13;;;;;;;;;;;;;;;;;;5003088;28;3382;-65
2023/01/20 12:28:00;;;;;;;;;;;;;;;;;;5010159;28;4872;-67
2023/01/20 12:30:25;;;;;;;;;;;;;;;;;;5014935;28;4984;-67
2023/01/20 12:32:50;;;;;;;;;;;;;;;;;;5005128;28;5068;-65
2023/01/20 12:35:15;;;;;;;;;;;;;;;;;;5003703;28;5580;-64
2023/01/20 12:37:43;;;;;;;;;;;;;;;;;;5008474;28;5245;-68
2023/01/20 12:40:17;;;;;;;;;;;;;;;;;;5002036;28;3341;-68
2023/01/20 12:42:45;;;;;;;;;;;;;;;;;;5001645;28;4595;-68
2023/01/20 12:45:17;;;;;;;;;;;;;;;;;;5002776;28;5071;-67
2023/01/20 12:47:45;;;;;;;;;;;;;;;;;;5006775;28;5070;-67
2023/01/20 12:50:17;;;;;;;;;;;;;;;;;;5007754;28;5043;-65
2023/01/20 12:52:51;;;;;;;;;;;;;;;;;;5001196;28;5133;-70
2023/01/20 12:55:19;;;;;;;;;;;;;;;;;;4999357;28;3508;-64
2023/01/20 12:57:53;;;;;;;;;;;;;;;;;;4986157;28;5182;-67
2023/01/20 13:00:22;;;;;;;;;;;;;;;;;;4978691;28;5060;-66
2023/01/20 13:02:47;;;;;;;;;;;;;;;;;;4998549;28;5173;-63
2023/01/20 13:05:19;;;;;;;;;;;;;;;;;;5005590;28;5087;-67
2023/01/20 13:07:47;;;;;;;;;;;;;;;;;;5003839;28;5115;-65
2023/01/20 13:10:18;;;;;;;;;;;;;;;;;;4987278;28;3263;-67
2023/01/20 13:12:44;;;;;;;;;;;;;;;;;;4985875;28;5104;-70
2023/01/20 13:15:27;;;;;;;;;;;;;;;;;;4992370;28;5458;-66
2023/01/20 13:17:53;;;;;;;;;;;;;;;;;;4995301;28;4911;-64
2023/01/20 13:20:22;;;;;;;;;;;;;;;;;;4983732;28;5141;-66
2023/01/20 13:22:47;;;;;;;;;;;;;;;;;;4984731;28;5117;-61
2023/01/20 13:25:12;;;;;;;;;;;;;;;;;;5000065;28;3253;-64
2023/01/20 13:27:38;;;;;;;;;;;;;;;;;;5006589;28;4721;-64
2023/01/20 13:30:04;;;;;;;;;;;;;;;;;;5001323;28;4930;-64
2023/01/20 13:32:32;;;;;;;;;;;;;;;;;;5001460;28;4904;-67
2023/01/20 13:34:57;;;;;;;;;;;;;;;;;;4985851;28;5038;-65
2023/01/20 13:37:26;;;;;;;;;;;;;;;;;;4988389;28;1539;-66
2023/01/20 13:39:53;;;;;;;;;;;;;;;;;;4987090;28;5033;-66
2023/01/20 13:42:42;;;;;;;;;;;;;;;;;;4999803;28;4979;-67
2023/01/20 13:45:08;;;;;;;;;;;;;;;;;;5003323;28;5488;-67
2023/01/20 13:47:52;;;;;;;;;;;;;;;;;;5005671;28;5316;-67
2023/01/20 13:50:21;;;;;;;;;;;;;;;;;;5004500;28;5059;-65
2023/01/20 13:52:49;;;;;;;;;;;;;;;;;;5002542;28;5186;-65
2023/01/20 13:55:26;;;;;;;;;;;;;;;;;;5001789;28;3678;-69
2023/01/20 13:57:52;;;;;;;;;;;;;;;;;;5001823;28;5111;-67
2023/01/20 14:00:18;;;;;;;;;;;;;;;;;;4997794;28;4652;-65
2023/01/20 14:02:43;;;;;;;;;;;;;;;;;;4999629;28;5073;-67
2023/01/20 14:05:19;;;;;;;;;;;;;;;;;;5012603;28;5332;-67
2023/01/20 14:07:44;;;;;;;;;;;;;;;;;;5001313;28;4499;-67
2023/01/20 14:10:09;;;;;;;;;;;;;;;;;;5006717;28;3175;-63
2023/01/20 14:12:38;;;;;;;;;;;;;;;;;;5001620;28;5007;-67
2023/01/20 14:15:04;;;;;;;;;;;;;;;;;;4996741;28;4582;-62
2023/01/20 14:17:29;;;;;;;;;;;;;;;;;;5003615;28;5060;-65
2023/01/20 14:19:54;;;;;;;;;;;;;;;;;;4996156;28;5161;-64
2023/01/20 14:22:23;;;;;;;;;;;;;;;;;;5004089;28;3316;-62
2023/01/20 14:24:51;;;;;;;;;;;;;;;;;;4978075;28;5124;-63
2023/01/20 14:27:18;;;;;;;;;;;;;;;;;;4981498;28;5191;-63
2023/01/20 14:29:50;;;;;;;;;;;;;;;;;;4990892;28;5013;-62
2023/01/20 14:32:20;;;;;;;;;;;;;;;;;;5004293;28;5150;-62
2023/01/20 14:34:45;;;;;;;;;;;;;;;;;;5005523;28;4806;-63
2023/01/20 14:37:27;;;;;;;;;;;;;;;;;;5003076;28;3668;-59
2023/01/20 14:39:55;;;;;;;;;;;;;;;;;;4997816;28;5067;-63
2023/01/20 14:42:20;;;;;;;;;;;;;;;;;;4998572;28;5141;-63
2023/01/20 14:44:46;;;;;;;;;;;;;;;;;;5003667;28;4514;-66
2023/01/20 14:47:12;;;;;;;;;;;;;;;;;;4996598;28;4564;-61
2023/01/20 14:49:40;;;;;;;;;;;;;;;;;;5003833;28;4736;-67
2023/01/20 14:52:06;;;;;;;;;;;;;;;;;;4997502;28;3453;-66
2023/01/20 14:54:31;;;;;;;;;;;;;;;;;;5000910;28;5002;-67
2023/01/20 14:56:57;;;;;;;;;;;;;;;;;;4990267;28;5205;-69
2023/01/20 14:59:22;;;;;;;;;;;;;;;;;;4977374;28;4529;-67
2023/01/20 15:01:51;;;;;;;;;;;;;;;;;;4978408;28;5206;-66
2023/01/20 15:04:17;;;;;;;;;;;;;;;;;;4973586;28;3700;-68
2023/01/20 15:06:43;;;;;;;;;;;;;;;;;;4977875;28;4846;-67
2023/01/20 15:09:25;;;;;;;;;;;;;;;;;;4973681;28;5233;-64
2023/01/20 15:11:50;;;;;;;;;;;;;;;;;;4976790;28;5186;-64
2023/01/20 15:14:15;;;;;;;;;;;;;;;;;;4994317;28;5045;-65
2023/01/20 15:16:46;;;;;;;;;;;;;;;;;;4977257;28;5119;-65
2023/01/20 15:19:18;;;;;;;;;;;;;;;;;;4980951;28;3518;-62
2023/01/20 15:21:56;;;;;;;;;;;;;;;;;;4980994;28;5010;-64
2023/01/20 15:24:22;;;;;;;;;;;;;;;;;;4990721;28;4932;-66
2023/01/20 15:26:48;;;;;;;;;;;;;;;;;;4996598;28;4830;-63
2023/01/20 15:29:24;;;;;;;;;;;;;;;;;;4998295;28;5195;-66
2023/01/20 15:31:49;;;;;;;;;;;;;;;;;;5000946;28;4531;-62
2023/01/20 15:34:15;;;;;;;;;;;;;;;;;;5004333;28;3393;-64
2023/01/20 15:36:40;;;;;;;;;;;;;;;;;;5000168;28;5054;-62
2023/01/20 15:39:08;;;;;;;;;;;;;;;;;;4998901;28;5113;-66
2023/01/20 15:41:33;;;;;;;;;;;;;;;;;;4993314;28;4693;-64
2023/01/20 15:43:58;;;;;;;;;;;;;;;;;;5000655;28;5169;-65
2023/01/20 15:46:24;;;;;;;;;;;;;;;;;;4998870;28;3321;-63
2023/01/20 15:48:49;;;;;;;;;;;;;;;;;;5000734;28;5021;-66
2023/01/20 15:51:15;;;;;;;;;;;;;;;;;;4996829;28;5095;-66
2023/01/20 15:53:40;;;;;;;;;;;;;;;;;;4996456;28;5427;-67
2023/01/20 15:56:08;;;;;;;;;;;;;;;;;;4997049;28;4782;-64
2023/01/20 15:58:35;;;;;;;;;;;;;;;;;;5006807;28;5121;-65
2023/01/20 16:01:00;;;;;;;;;;;;;;;;;;5002026;28;3495;-64
2023/01/20 16:03:26;;;;;;;;;;;;;;;;;;5002456;28;5014;-66
2023/01/20 16:05:51;;;;;;;;;;;;;;;;;;5006820;28;5103;-71
2023/01/20 16:08:17;;;;;;;;;;;;;;;;;;5003027;28;5063;-69
2023/01/20 16:10:43;;;;;;;;;;;;;;;;;;5004779;28;4690;-71
2023/01/20 16:13:08;;;;;;;;;;;;;;;;;;5000505;28;3735;-72
2023/01/20 16:15:34;;;;;;;;;;;;;;;;;;4999753;28;5075;-66
2023/01/20 16:17:59;;;;;;;;;;;;;;;;;;4997782;28;5057;-67
2023/01/20 16:20:24;;;;;;;;;;;;;;;;;;5003276;28;5172;-71
2023/01/20 16:22:50;;;;;;;;;;;;;;;;;;5005935;28;5159;-68
2023/01/20 16:25:16;;;;;;;;;;;;;;;;;;5002202;28;3409;-71
2023/01/20 16:27:41;;;;;;;;;;;;;;;;;;5004198;28;4908;-69
2023/01/20 16:30:08;;;;;;;;;;;;;;;;;;5006855;28;5739;-70
2023/01/20 16:32:33;;;;;;;;;;;;;;;;;;5000923;28;5604;-68
2023/01/20 16:34:59;;;;;;;;;;;;;;;;;;5005712;28;5109;-68
2023/01/20 16:37:24;;;;;;;;;;;;;;;;;;5007901;28;3400;-71
2023/01/20 16:39:49;;;;;;;;;;;;;;;;;;5002357;28;5205;-65
2023/01/20 16:42:14;;;;;;;;;;;;;;;;;;5007697;28;5014;-66
2023/01/20 16:44:40;;;;;;;;;;;;;;;;;;5003048;28;5167;-64
2023/01/20 16:47:07;;;;;;;;;;;;;;;;;;5002117;28;5548;-64
2023/01/20 16:49:32;;;;;;;;;;;;;;;;;;5007685;28;1279;-65
2023/01/20 16:51:57;;;;;;;;;;;;;;;;;;5004770;28;5005;-65
2023/01/20 16:54:22;;;;;;;;;;;;;;;;;;5005574;28;5219;-64
2023/01/20 16:56:48;;;;;;;;;;;;;;;;;;5001427;28;5057;-72
2023/01/20 16:59:13;;;;;;;;;;;;;;;;;;5005451;28;5018;-68
2023/01/20 17:01:39;;;;;;;;;;;;;;;;;;5006882;28;5112;-69
2023/01/20 17:04:04;;;;;;;;;;;;;;;;;;5006679;28;1429;-69
2023/01/20 17:06:30;;;;;;;;;;;;;;;;;;5002997;28;5057;-62
2023/01/20 17:08:56;;;;;;;;;;;;;;;;;;4999441;28;5090;-66
2023/01/20 17:11:25;;;;;;;;;;;;;;;;;;5007258;28;5059;-62
2023/01/20 17:13:50;;;;;;;;;;;;;;;;;;5006436;28;4561;-63
2023/01/20 17:16:16;;;;;;;;;;;;;;;;;;5004245;28;3327;-65